sensor_id;sensor_type;location;lat;lon;timestamp;P1;durP1;ratioP1;P2;durP2;ratioP2
14748;SDS011;7466;53.574;9.976;2022-07-23T00:01:29;1.90;;;1.40;;
14748;SDS011;7466;53.574;9.976;2022-07-23T00:03:56;2.73;;;1.40;;
14748;SDS011;7466;53.574;9.976;2022-07-23T00:06:23;2.63;;;1.30;;
14748;SDS011;7466;53.574;9.976;2022-07-23T00:08:51;1.77;;;1.20;;
14748;SDS011;7466;53.574;9.976;2022-07-23T00:11:18;3.03;;;1.27;;
14748;SDS011;7466;53.574;9.976;2022-07-23T00:13:47;3.43;;;1.30;;
14748;SDS011;7466;53.574;9.976;2022-07-23T00:16:14;2.50;;;1.13;;
14748;SDS011;7466;53.574;9.976;2022-07-23T00:18:42;1.77;;;1.30;;
14748;SDS011;7466;53.574;9.976;2022-07-23T00:21:08;1.53;;;1.27;;
14748;SDS011;7466;53.574;9.976;2022-07-23T00:23:35;2.87;;;1.10;;
14748;SDS011;7466;53.574;9.976;2022-07-23T00:26:02;1.90;;;1.20;;
14748;SDS011;7466;53.574;9.976;2022-07-23T00:28:29;4.00;;;1.30;;
14748;SDS011;7466;53.574;9.976;2022-07-23T00:30:56;2.90;;;1.10;;
14748;SDS011;7466;53.574;9.976;2022-07-23T00:33:23;2.43;;;1.17;;
14748;SDS011;7466;53.574;9.976;2022-07-23T00:35:51;5.33;;;1.57;;
14748;SDS011;7466;53.574;9.976;2022-07-23T00:38:18;5.80;;;1.60;;
14748;SDS011;7466;53.574;9.976;2022-07-23T00:40:45;6.77;;;1.80;;
14748;SDS011;7466;53.574;9.976;2022-07-23T00:43:12;2.83;;;1.37;;
14748;SDS011;7466;53.574;9.976;2022-07-23T00:45:39;1.50;;;1.10;;
14748;SDS011;7466;53.574;9.976;2022-07-23T00:48:06;3.40;;;1.50;;
14748;SDS011;7466;53.574;9.976;2022-07-23T00:50:33;6.03;;;1.60;;
14748;SDS011;7466;53.574;9.976;2022-07-23T00:53:01;3.43;;;1.40;;
14748;SDS011;7466;53.574;9.976;2022-07-23T00:55:28;3.23;;;1.30;;
14748;SDS011;7466;53.574;9.976;2022-07-23T00:57:55;6.30;;;1.57;;
14748;SDS011;7466;53.574;9.976;2022-07-23T01:00:23;3.43;;;1.67;;
14748;SDS011;7466;53.574;9.976;2022-07-23T01:02:50;2.23;;;1.50;;
14748;SDS011;7466;53.574;9.976;2022-07-23T01:05:16;5.70;;;1.40;;
14748;SDS011;7466;53.574;9.976;2022-07-23T01:07:47;4.67;;;1.50;;
14748;SDS011;7466;53.574;9.976;2022-07-23T01:10:15;2.87;;;1.47;;
14748;SDS011;7466;53.574;9.976;2022-07-23T01:12:58;2.73;;;1.20;;
14748;SDS011;7466;53.574;9.976;2022-07-23T01:15:25;2.13;;;1.50;;
14748;SDS011;7466;53.574;9.976;2022-07-23T01:17:52;3.97;;;1.43;;
14748;SDS011;7466;53.574;9.976;2022-07-23T01:20:19;6.40;;;1.37;;
14748;SDS011;7466;53.574;9.976;2022-07-23T01:22:48;2.77;;;1.47;;
14748;SDS011;7466;53.574;9.976;2022-07-23T01:25:15;2.83;;;1.30;;
14748;SDS011;7466;53.574;9.976;2022-07-23T01:27:42;3.50;;;1.50;;
14748;SDS011;7466;53.574;9.976;2022-07-23T01:30:10;2.60;;;1.20;;
14748;SDS011;7466;53.574;9.976;2022-07-23T01:32:37;3.33;;;1.30;;
14748;SDS011;7466;53.574;9.976;2022-07-23T01:35:05;5.73;;;1.57;;
14748;SDS011;7466;53.574;9.976;2022-07-23T01:37:33;2.67;;;1.40;;
14748;SDS011;7466;53.574;9.976;2022-07-23T01:40:01;2.70;;;1.20;;
14748;SDS011;7466;53.574;9.976;2022-07-23T01:42:29;2.30;;;1.50;;
14748;SDS011;7466;53.574;9.976;2022-07-23T01:44:56;1.67;;;1.30;;
14748;SDS011;7466;53.574;9.976;2022-07-23T01:47:23;4.03;;;1.33;;
14748;SDS011;7466;53.574;9.976;2022-07-23T01:49:50;3.80;;;1.47;;
14748;SDS011;7466;53.574;9.976;2022-07-23T01:52:16;2.63;;;1.30;;
14748;SDS011;7466;53.574;9.976;2022-07-23T01:54:43;4.17;;;1.30;;
14748;SDS011;7466;53.574;9.976;2022-07-23T01:57:11;2.53;;;1.10;;
14748;SDS011;7466;53.574;9.976;2022-07-23T01:59:38;2.47;;;1.07;;
14748;SDS011;7466;53.574;9.976;2022-07-23T02:02:05;1.60;;;1.00;;
14748;SDS011;7466;53.574;9.976;2022-07-23T02:04:32;1.73;;;1.10;;
14748;SDS011;7466;53.574;9.976;2022-07-23T02:07:01;3.63;;;1.30;;
14748;SDS011;7466;53.574;9.976;2022-07-23T02:09:28;1.50;;;1.23;;
14748;SDS011;7466;53.574;9.976;2022-07-23T02:11:55;2.00;;;1.20;;
14748;SDS011;7466;53.574;9.976;2022-07-23T02:14:24;3.43;;;1.50;;
14748;SDS011;7466;53.574;9.976;2022-07-23T02:16:51;1.83;;;1.20;;
14748;SDS011;7466;53.574;9.976;2022-07-23T02:19:17;1.90;;;1.20;;
14748;SDS011;7466;53.574;9.976;2022-07-23T02:21:44;2.27;;;1.00;;
14748;SDS011;7466;53.574;9.976;2022-07-23T02:24:11;4.33;;;1.40;;
14748;SDS011;7466;53.574;9.976;2022-07-23T02:26:38;1.53;;;1.10;;
14748;SDS011;7466;53.574;9.976;2022-07-23T02:29:04;2.43;;;1.20;;
14748;SDS011;7466;53.574;9.976;2022-07-23T02:31:33;3.67;;;1.50;;
14748;SDS011;7466;53.574;9.976;2022-07-23T02:34:00;4.53;;;1.50;;
14748;SDS011;7466;53.574;9.976;2022-07-23T02:36:27;1.40;;;1.30;;
14748;SDS011;7466;53.574;9.976;2022-07-23T02:38:54;5.30;;;1.47;;
14748;SDS011;7466;53.574;9.976;2022-07-23T02:41:21;4.13;;;1.30;;
14748;SDS011;7466;53.574;9.976;2022-07-23T02:43:48;3.20;;;1.30;;
14748;SDS011;7466;53.574;9.976;2022-07-23T02:46:15;1.70;;;1.27;;
14748;SDS011;7466;53.574;9.976;2022-07-23T02:48:43;1.83;;;1.10;;
14748;SDS011;7466;53.574;9.976;2022-07-23T02:51:10;3.43;;;1.20;;
14748;SDS011;7466;53.574;9.976;2022-07-23T02:53:37;3.20;;;1.77;;
14748;SDS011;7466;53.574;9.976;2022-07-23T02:56:04;2.37;;;1.40;;
14748;SDS011;7466;53.574;9.976;2022-07-23T02:58:31;2.30;;;1.30;;
14748;SDS011;7466;53.574;9.976;2022-07-23T03:00:57;2.23;;;1.40;;
14748;SDS011;7466;53.574;9.976;2022-07-23T03:03:24;4.83;;;1.53;;
14748;SDS011;7466;53.574;9.976;2022-07-23T03:05:53;1.80;;;1.30;;
14748;SDS011;7466;53.574;9.976;2022-07-23T03:08:20;1.50;;;1.30;;
14748;SDS011;7466;53.574;9.976;2022-07-23T03:10:46;2.50;;;1.50;;
14748;SDS011;7466;53.574;9.976;2022-07-23T03:13:13;5.03;;;1.70;;
14748;SDS011;7466;53.574;9.976;2022-07-23T03:15:40;3.83;;;1.33;;
14748;SDS011;7466;53.574;9.976;2022-07-23T03:18:07;2.20;;;1.50;;
14748;SDS011;7466;53.574;9.976;2022-07-23T03:20:34;2.93;;;1.90;;
14748;SDS011;7466;53.574;9.976;2022-07-23T03:23:02;3.93;;;1.40;;
14748;SDS011;7466;53.574;9.976;2022-07-23T03:25:29;4.07;;;1.60;;
14748;SDS011;7466;53.574;9.976;2022-07-23T03:27:55;3.80;;;1.50;;
14748;SDS011;7466;53.574;9.976;2022-07-23T03:30:22;3.53;;;1.53;;
14748;SDS011;7466;53.574;9.976;2022-07-23T03:32:49;2.27;;;1.37;;
14748;SDS011;7466;53.574;9.976;2022-07-23T03:35:16;2.17;;;1.60;;
14748;SDS011;7466;53.574;9.976;2022-07-23T03:37:43;1.63;;;1.53;;
14748;SDS011;7466;53.574;9.976;2022-07-23T03:40:11;2.90;;;1.43;;
14748;SDS011;7466;53.574;9.976;2022-07-23T03:42:38;2.83;;;1.60;;
14748;SDS011;7466;53.574;9.976;2022-07-23T03:45:07;2.40;;;1.80;;
14748;SDS011;7466;53.574;9.976;2022-07-23T03:47:34;7.13;;;1.70;;
14748;SDS011;7466;53.574;9.976;2022-07-23T03:50:01;3.57;;;1.80;;
14748;SDS011;7466;53.574;9.976;2022-07-23T03:52:28;3.37;;;1.70;;
14748;SDS011;7466;53.574;9.976;2022-07-23T03:54:55;3.77;;;1.90;;
14748;SDS011;7466;53.574;9.976;2022-07-23T03:57:23;3.43;;;1.67;;
14748;SDS011;7466;53.574;9.976;2022-07-23T03:59:50;2.93;;;1.50;;
14748;SDS011;7466;53.574;9.976;2022-07-23T04:02:17;3.70;;;1.60;;
14748;SDS011;7466;53.574;9.976;2022-07-23T04:04:44;2.87;;;1.87;;
14748;SDS011;7466;53.574;9.976;2022-07-23T04:07:11;2.67;;;1.70;;
14748;SDS011;7466;53.574;9.976;2022-07-23T04:09:38;3.23;;;1.87;;
14748;SDS011;7466;53.574;9.976;2022-07-23T04:12:07;6.27;;;2.20;;
14748;SDS011;7466;53.574;9.976;2022-07-23T04:14:35;5.60;;;1.70;;
14748;SDS011;7466;53.574;9.976;2022-07-23T04:17:02;4.20;;;1.70;;
14748;SDS011;7466;53.574;9.976;2022-07-23T04:19:29;2.83;;;1.80;;
14748;SDS011;7466;53.574;9.976;2022-07-23T04:21:56;4.40;;;2.00;;
14748;SDS011;7466;53.574;9.976;2022-07-23T04:24:23;3.37;;;2.00;;
14748;SDS011;7466;53.574;9.976;2022-07-23T04:26:50;2.53;;;1.70;;
14748;SDS011;7466;53.574;9.976;2022-07-23T04:29:16;4.47;;;1.93;;
14748;SDS011;7466;53.574;9.976;2022-07-23T04:31:45;2.40;;;1.70;;
14748;SDS011;7466;53.574;9.976;2022-07-23T04:34:11;2.93;;;1.87;;
14748;SDS011;7466;53.574;9.976;2022-07-23T04:36:38;5.60;;;1.93;;
14748;SDS011;7466;53.574;9.976;2022-07-23T04:39:05;2.70;;;2.00;;
14748;SDS011;7466;53.574;9.976;2022-07-23T04:41:32;3.23;;;1.70;;
14748;SDS011;7466;53.574;9.976;2022-07-23T04:43:59;3.30;;;1.80;;
14748;SDS011;7466;53.574;9.976;2022-07-23T04:46:26;6.40;;;1.80;;
14748;SDS011;7466;53.574;9.976;2022-07-23T04:48:54;5.47;;;2.57;;
14748;SDS011;7466;53.574;9.976;2022-07-23T04:51:21;5.43;;;2.27;;
14748;SDS011;7466;53.574;9.976;2022-07-23T04:53:48;5.33;;;2.50;;
14748;SDS011;7466;53.574;9.976;2022-07-23T04:56:15;3.43;;;2.53;;
14748;SDS011;7466;53.574;9.976;2022-07-23T04:58:41;5.27;;;2.23;;
14748;SDS011;7466;53.574;9.976;2022-07-23T05:01:08;5.43;;;2.83;;
14748;SDS011;7466;53.574;9.976;2022-07-23T05:03:35;2.93;;;1.90;;
14748;SDS011;7466;53.574;9.976;2022-07-23T05:06:03;3.77;;;2.27;;
14748;SDS011;7466;53.574;9.976;2022-07-23T05:08:30;4.20;;;1.70;;
14748;SDS011;7466;53.574;9.976;2022-07-23T05:10:57;4.13;;;1.60;;
14748;SDS011;7466;53.574;9.976;2022-07-23T05:13:24;4.50;;;1.80;;
14748;SDS011;7466;53.574;9.976;2022-07-23T05:15:51;4.37;;;1.63;;
14748;SDS011;7466;53.574;9.976;2022-07-23T05:18:18;2.23;;;1.93;;
14748;SDS011;7466;53.574;9.976;2022-07-23T05:20:45;3.47;;;1.70;;
14748;SDS011;7466;53.574;9.976;2022-07-23T05:23:13;4.67;;;1.70;;
14748;SDS011;7466;53.574;9.976;2022-07-23T05:25:40;2.97;;;1.27;;
14748;SDS011;7466;53.574;9.976;2022-07-23T05:28:07;2.53;;;1.60;;
14748;SDS011;7466;53.574;9.976;2022-07-23T05:30:34;3.47;;;1.40;;
14748;SDS011;7466;53.574;9.976;2022-07-23T05:33:00;2.00;;;1.30;;
14748;SDS011;7466;53.574;9.976;2022-07-23T05:35:27;3.30;;;1.53;;
14748;SDS011;7466;53.574;9.976;2022-07-23T05:37:54;1.30;;;1.30;;
14748;SDS011;7466;53.574;9.976;2022-07-23T05:40:22;2.47;;;1.10;;
14748;SDS011;7466;53.574;9.976;2022-07-23T05:42:49;2.00;;;1.37;;
14748;SDS011;7466;53.574;9.976;2022-07-23T05:45:16;2.90;;;1.30;;
14748;SDS011;7466;53.574;9.976;2022-07-23T05:47:43;3.20;;;1.33;;
14748;SDS011;7466;53.574;9.976;2022-07-23T05:50:11;2.00;;;1.27;;
14748;SDS011;7466;53.574;9.976;2022-07-23T05:52:39;1.60;;;1.27;;
14748;SDS011;7466;53.574;9.976;2022-07-23T05:55:07;1.43;;;1.23;;
14748;SDS011;7466;53.574;9.976;2022-07-23T05:57:36;4.30;;;1.30;;
14748;SDS011;7466;53.574;9.976;2022-07-23T06:00:05;2.40;;;1.23;;
14748;SDS011;7466;53.574;9.976;2022-07-23T06:02:34;2.33;;;1.20;;
14748;SDS011;7466;53.574;9.976;2022-07-23T06:05:01;1.77;;;1.10;;
14748;SDS011;7466;53.574;9.976;2022-07-23T06:07:27;1.53;;;1.30;;
14748;SDS011;7466;53.574;9.976;2022-07-23T06:09:54;5.13;;;1.57;;
14748;SDS011;7466;53.574;9.976;2022-07-23T06:12:21;2.27;;;1.50;;
14748;SDS011;7466;53.574;9.976;2022-07-23T06:14:50;3.33;;;1.63;;
14748;SDS011;7466;53.574;9.976;2022-07-23T06:17:17;4.07;;;1.70;;
14748;SDS011;7466;53.574;9.976;2022-07-23T06:19:44;2.67;;;1.47;;
14748;SDS011;7466;53.574;9.976;2022-07-23T06:22:11;1.57;;;1.40;;
14748;SDS011;7466;53.574;9.976;2022-07-23T06:24:38;2.40;;;1.40;;
14748;SDS011;7466;53.574;9.976;2022-07-23T06:27:04;1.50;;;1.40;;
14748;SDS011;7466;53.574;9.976;2022-07-23T06:29:31;4.17;;;1.57;;
14748;SDS011;7466;53.574;9.976;2022-07-23T06:32:00;2.20;;;1.67;;
14748;SDS011;7466;53.574;9.976;2022-07-23T06:34:26;2.87;;;1.70;;
14748;SDS011;7466;53.574;9.976;2022-07-23T06:36:53;1.97;;;1.33;;
14748;SDS011;7466;53.574;9.976;2022-07-23T06:39:20;3.67;;;1.60;;
14748;SDS011;7466;53.574;9.976;2022-07-23T06:41:47;1.90;;;1.60;;
14748;SDS011;7466;53.574;9.976;2022-07-23T06:44:14;2.93;;;1.80;;
14748;SDS011;7466;53.574;9.976;2022-07-23T06:46:41;1.73;;;1.63;;
14748;SDS011;7466;53.574;9.976;2022-07-23T06:49:09;5.00;;;1.90;;
14748;SDS011;7466;53.574;9.976;2022-07-23T06:51:36;3.33;;;1.77;;
14748;SDS011;7466;53.574;9.976;2022-07-23T06:54:03;1.83;;;1.73;;
14748;SDS011;7466;53.574;9.976;2022-07-23T06:56:30;2.23;;;1.87;;
14748;SDS011;7466;53.574;9.976;2022-07-23T06:58:56;3.20;;;1.70;;
14748;SDS011;7466;53.574;9.976;2022-07-23T07:01:24;3.20;;;1.50;;
14748;SDS011;7466;53.574;9.976;2022-07-23T07:03:50;1.50;;;1.40;;
14748;SDS011;7466;53.574;9.976;2022-07-23T07:06:18;1.50;;;1.00;;
14748;SDS011;7466;53.574;9.976;2022-07-23T07:08:45;1.80;;;0.90;;
14748;SDS011;7466;53.574;9.976;2022-07-23T07:11:12;3.43;;;1.00;;
14748;SDS011;7466;53.574;9.976;2022-07-23T07:13:39;1.30;;;1.13;;
14748;SDS011;7466;53.574;9.976;2022-07-23T07:16:06;2.07;;;1.00;;
14748;SDS011;7466;53.574;9.976;2022-07-23T07:18:33;3.03;;;1.10;;
14748;SDS011;7466;53.574;9.976;2022-07-23T07:21:00;3.13;;;1.30;;
14748;SDS011;7466;53.574;9.976;2022-07-23T07:23:28;3.23;;;1.17;;
14748;SDS011;7466;53.574;9.976;2022-07-23T07:25:55;2.23;;;1.00;;
14748;SDS011;7466;53.574;9.976;2022-07-23T07:28:21;1.47;;;1.27;;
14748;SDS011;7466;53.574;9.976;2022-07-23T07:30:48;1.30;;;1.20;;
14748;SDS011;7466;53.574;9.976;2022-07-23T07:33:15;2.33;;;1.20;;
14748;SDS011;7466;53.574;9.976;2022-07-23T07:35:42;1.63;;;1.30;;
14748;SDS011;7466;53.574;9.976;2022-07-23T07:38:08;1.57;;;1.20;;
14748;SDS011;7466;53.574;9.976;2022-07-23T07:40:37;1.93;;;1.00;;
14748;SDS011;7466;53.574;9.976;2022-07-23T07:43:03;1.97;;;0.80;;
14748;SDS011;7466;53.574;9.976;2022-07-23T07:45:30;2.33;;;1.10;;
14748;SDS011;7466;53.574;9.976;2022-07-23T07:47:57;1.47;;;0.80;;
14748;SDS011;7466;53.574;9.976;2022-07-23T07:50:24;1.77;;;0.80;;
14748;SDS011;7466;53.574;9.976;2022-07-23T07:52:52;0.67;;;0.67;;
14748;SDS011;7466;53.574;9.976;2022-07-23T07:55:19;0.73;;;0.60;;
14748;SDS011;7466;53.574;9.976;2022-07-23T07:57:47;1.53;;;0.80;;
14748;SDS011;7466;53.574;9.976;2022-07-23T08:00:14;1.27;;;0.87;;
14748;SDS011;7466;53.574;9.976;2022-07-23T08:02:42;1.10;;;0.60;;
14748;SDS011;7466;53.574;9.976;2022-07-23T08:05:10;1.00;;;0.60;;
14748;SDS011;7466;53.574;9.976;2022-07-23T08:07:37;1.03;;;0.90;;
14748;SDS011;7466;53.574;9.976;2022-07-23T08:10:05;0.90;;;0.80;;
14748;SDS011;7466;53.574;9.976;2022-07-23T08:12:43;2.30;;;0.80;;
14748;SDS011;7466;53.574;9.976;2022-07-23T08:15:13;1.27;;;0.80;;
14748;SDS011;7466;53.574;9.976;2022-07-23T08:17:42;1.93;;;0.97;;
14748;SDS011;7466;53.574;9.976;2022-07-23T08:20:10;1.10;;;0.80;;
14748;SDS011;7466;53.574;9.976;2022-07-23T08:22:42;1.23;;;0.70;;
14748;SDS011;7466;53.574;9.976;2022-07-23T08:25:10;1.87;;;1.10;;
14748;SDS011;7466;53.574;9.976;2022-07-23T08:27:37;1.03;;;0.90;;
14748;SDS011;7466;53.574;9.976;2022-07-23T08:30:04;2.10;;;1.03;;
14748;SDS011;7466;53.574;9.976;2022-07-23T08:32:33;3.37;;;1.00;;
14748;SDS011;7466;53.574;9.976;2022-07-23T08:35:13;0.70;;;0.70;;
14748;SDS011;7466;53.574;9.976;2022-07-23T08:37:39;1.40;;;0.90;;
14748;SDS011;7466;53.574;9.976;2022-07-23T08:40:07;0.67;;;0.67;;
14748;SDS011;7466;53.574;9.976;2022-07-23T08:42:34;1.93;;;1.10;;
14748;SDS011;7466;53.574;9.976;2022-07-23T08:45:02;2.10;;;0.90;;
14748;SDS011;7466;53.574;9.976;2022-07-23T08:47:29;0.77;;;0.70;;
14748;SDS011;7466;53.574;9.976;2022-07-23T08:49:58;0.50;;;0.50;;
14748;SDS011;7466;53.574;9.976;2022-07-23T08:52:26;0.73;;;0.73;;
14748;SDS011;7466;53.574;9.976;2022-07-23T08:54:53;1.63;;;0.77;;
14748;SDS011;7466;53.574;9.976;2022-07-23T08:57:20;0.67;;;0.67;;
14748;SDS011;7466;53.574;9.976;2022-07-23T08:59:47;1.47;;;0.80;;
14748;SDS011;7466;53.574;9.976;2022-07-23T09:02:14;0.90;;;0.50;;
14748;SDS011;7466;53.574;9.976;2022-07-23T09:04:41;1.53;;;0.67;;
14748;SDS011;7466;53.574;9.976;2022-07-23T09:07:09;0.60;;;0.60;;
14748;SDS011;7466;53.574;9.976;2022-07-23T09:09:36;1.53;;;0.70;;
14748;SDS011;7466;53.574;9.976;2022-07-23T09:12:04;1.40;;;0.80;;
14748;SDS011;7466;53.574;9.976;2022-07-23T09:14:38;0.70;;;0.70;;
14748;SDS011;7466;53.574;9.976;2022-07-23T09:17:10;0.50;;;0.50;;
14748;SDS011;7466;53.574;9.976;2022-07-23T09:19:39;0.77;;;0.70;;
14748;SDS011;7466;53.574;9.976;2022-07-23T09:22:18;1.00;;;0.80;;
14748;SDS011;7466;53.574;9.976;2022-07-23T09:25:02;0.73;;;0.67;;
14748;SDS011;7466;53.574;9.976;2022-07-23T09:27:44;1.10;;;0.80;;
14748;SDS011;7466;53.574;9.976;2022-07-23T09:30:17;0.70;;;0.70;;
14748;SDS011;7466;53.574;9.976;2022-07-23T09:32:44;1.37;;;0.80;;
14748;SDS011;7466;53.574;9.976;2022-07-23T09:35:43;0.77;;;0.70;;
14748;SDS011;7466;53.574;9.976;2022-07-23T09:38:16;0.80;;;0.80;;
14748;SDS011;7466;53.574;9.976;2022-07-23T09:40:43;1.07;;;0.90;;
14748;SDS011;7466;53.574;9.976;2022-07-23T09:43:11;2.63;;;1.00;;
14748;SDS011;7466;53.574;9.976;2022-07-23T09:45:38;1.70;;;0.73;;
14748;SDS011;7466;53.574;9.976;2022-07-23T09:48:12;1.40;;;0.70;;
14748;SDS011;7466;53.574;9.976;2022-07-23T09:50:41;0.90;;;0.90;;
14748;SDS011;7466;53.574;9.976;2022-07-23T09:53:09;0.67;;;0.67;;
14748;SDS011;7466;53.574;9.976;2022-07-23T09:55:51;2.53;;;1.30;;
14748;SDS011;7466;53.574;9.976;2022-07-23T09:58:23;0.63;;;0.57;;
14748;SDS011;7466;53.574;9.976;2022-07-23T10:00:52;0.93;;;0.77;;
14748;SDS011;7466;53.574;9.976;2022-07-23T10:03:19;0.53;;;0.50;;
14748;SDS011;7466;53.574;9.976;2022-07-23T10:05:47;1.90;;;1.00;;
14748;SDS011;7466;53.574;9.976;2022-07-23T10:08:14;0.70;;;0.70;;
14748;SDS011;7466;53.574;9.976;2022-07-23T10:10:45;3.00;;;0.70;;
14748;SDS011;7466;53.574;9.976;2022-07-23T10:13:15;1.33;;;0.67;;
14748;SDS011;7466;53.574;9.976;2022-07-23T10:15:56;1.10;;;0.50;;
14748;SDS011;7466;53.574;9.976;2022-07-23T10:18:23;2.10;;;0.93;;
14748;SDS011;7466;53.574;9.976;2022-07-23T10:20:50;4.80;;;0.70;;
14748;SDS011;7466;53.574;9.976;2022-07-23T10:23:19;1.00;;;0.70;;
14748;SDS011;7466;53.574;9.976;2022-07-23T10:25:51;1.00;;;0.70;;
14748;SDS011;7466;53.574;9.976;2022-07-23T10:28:33;0.77;;;0.50;;
14748;SDS011;7466;53.574;9.976;2022-07-23T10:31:20;0.63;;;0.40;;
14748;SDS011;7466;53.574;9.976;2022-07-23T10:34:07;0.47;;;0.47;;
14748;SDS011;7466;53.574;9.976;2022-07-23T10:36:42;0.87;;;0.60;;
14748;SDS011;7466;53.574;9.976;2022-07-23T10:39:14;1.13;;;0.60;;
14748;SDS011;7466;53.574;9.976;2022-07-23T10:41:45;1.57;;;0.63;;
14748;SDS011;7466;53.574;9.976;2022-07-23T10:44:13;2.73;;;0.50;;
14748;SDS011;7466;53.574;9.976;2022-07-23T10:46:54;1.10;;;0.70;;
14748;SDS011;7466;53.574;9.976;2022-07-23T10:49:36;1.20;;;0.50;;
14748;SDS011;7466;53.574;9.976;2022-07-23T10:52:19;1.03;;;0.60;;
14748;SDS011;7466;53.574;9.976;2022-07-23T10:54:48;0.80;;;0.60;;
14748;SDS011;7466;53.574;9.976;2022-07-23T10:57:16;1.77;;;0.53;;
14748;SDS011;7466;53.574;9.976;2022-07-23T11:02:41;1.97;;;0.67;;
14748;SDS011;7466;53.574;9.976;2022-07-23T11:05:11;0.90;;;0.80;;
14748;SDS011;7466;53.574;9.976;2022-07-23T11:10:36;1.23;;;0.80;;
14748;SDS011;7466;53.574;9.976;2022-07-23T11:18:53;0.60;;;0.50;;
14748;SDS011;7466;53.574;9.976;2022-07-23T11:24:22;1.30;;;0.50;;
14748;SDS011;7466;53.574;9.976;2022-07-23T11:26:56;0.53;;;0.53;;
14748;SDS011;7466;53.574;9.976;2022-07-23T11:29:44;0.60;;;0.60;;
14748;SDS011;7466;53.574;9.976;2022-07-23T11:32:20;2.10;;;0.60;;
14748;SDS011;7466;53.574;9.976;2022-07-23T11:35:00;0.80;;;0.60;;
14748;SDS011;7466;53.574;9.976;2022-07-23T11:37:37;0.83;;;0.77;;
14748;SDS011;7466;53.574;9.976;2022-07-23T11:40:07;1.37;;;0.63;;
14748;SDS011;7466;53.574;9.976;2022-07-23T11:42:37;0.83;;;0.60;;
14748;SDS011;7466;53.574;9.976;2022-07-23T11:45:05;0.67;;;0.50;;
14748;SDS011;7466;53.574;9.976;2022-07-23T11:47:35;0.70;;;0.50;;
14748;SDS011;7466;53.574;9.976;2022-07-23T11:50:03;0.87;;;0.60;;
14748;SDS011;7466;53.574;9.976;2022-07-23T11:52:32;1.53;;;0.80;;
14748;SDS011;7466;53.574;9.976;2022-07-23T11:55:00;1.33;;;0.90;;
14748;SDS011;7466;53.574;9.976;2022-07-23T11:57:30;1.70;;;0.83;;
14748;SDS011;7466;53.574;9.976;2022-07-23T12:00:00;1.10;;;1.00;;
14748;SDS011;7466;53.574;9.976;2022-07-23T12:02:29;1.27;;;1.00;;
14748;SDS011;7466;53.574;9.976;2022-07-23T12:04:57;0.93;;;0.87;;
14748;SDS011;7466;53.574;9.976;2022-07-23T12:07:25;2.93;;;1.00;;
14748;SDS011;7466;53.574;9.976;2022-07-23T12:09:57;1.33;;;0.90;;
14748;SDS011;7466;53.574;9.976;2022-07-23T12:12:25;0.90;;;0.90;;
14748;SDS011;7466;53.574;9.976;2022-07-23T12:14:53;2.37;;;1.00;;
14748;SDS011;7466;53.574;9.976;2022-07-23T12:17:21;2.13;;;1.00;;
14748;SDS011;7466;53.574;9.976;2022-07-23T12:19:54;1.77;;;1.07;;
14748;SDS011;7466;53.574;9.976;2022-07-23T12:22:23;2.87;;;1.10;;
14748;SDS011;7466;53.574;9.976;2022-07-23T12:24:58;3.60;;;1.20;;
14748;SDS011;7466;53.574;9.976;2022-07-23T12:27:26;1.83;;;1.10;;
14748;SDS011;7466;53.574;9.976;2022-07-23T12:29:53;2.90;;;0.97;;
14748;SDS011;7466;53.574;9.976;2022-07-23T12:32:20;1.37;;;1.00;;
14748;SDS011;7466;53.574;9.976;2022-07-23T12:34:49;1.77;;;1.20;;
14748;SDS011;7466;53.574;9.976;2022-07-23T12:37:28;1.67;;;0.97;;
14748;SDS011;7466;53.574;9.976;2022-07-23T12:39:57;1.13;;;1.07;;
14748;SDS011;7466;53.574;9.976;2022-07-23T12:42:23;1.23;;;0.87;;
14748;SDS011;7466;53.574;9.976;2022-07-23T12:45:03;1.93;;;1.10;;
14748;SDS011;7466;53.574;9.976;2022-07-23T12:50:30;2.47;;;1.07;;
14748;SDS011;7466;53.574;9.976;2022-07-23T12:53:07;2.10;;;0.90;;
14748;SDS011;7466;53.574;9.976;2022-07-23T12:55:35;3.13;;;1.17;;
14748;SDS011;7466;53.574;9.976;2022-07-23T12:58:04;1.33;;;1.10;;
14748;SDS011;7466;53.574;9.976;2022-07-23T13:03:28;1.27;;;1.00;;
14748;SDS011;7466;53.574;9.976;2022-07-23T13:05:57;1.53;;;0.80;;
14748;SDS011;7466;53.574;9.976;2022-07-23T13:08:27;1.77;;;0.97;;
14748;SDS011;7466;53.574;9.976;2022-07-23T13:10:56;2.93;;;1.10;;
14748;SDS011;7466;53.574;9.976;2022-07-23T13:13:24;1.17;;;1.00;;
14748;SDS011;7466;53.574;9.976;2022-07-23T13:15:52;3.27;;;1.00;;
14748;SDS011;7466;53.574;9.976;2022-07-23T13:18:20;0.80;;;0.70;;
14748;SDS011;7466;53.574;9.976;2022-07-23T13:20:48;2.00;;;1.00;;
14748;SDS011;7466;53.574;9.976;2022-07-23T13:23:15;1.47;;;0.80;;
14748;SDS011;7466;53.574;9.976;2022-07-23T13:25:44;1.73;;;1.17;;
14748;SDS011;7466;53.574;9.976;2022-07-23T13:28:12;1.90;;;1.00;;
14748;SDS011;7466;53.574;9.976;2022-07-23T13:30:40;2.67;;;1.00;;
14748;SDS011;7466;53.574;9.976;2022-07-23T13:33:07;1.73;;;1.00;;
14748;SDS011;7466;53.574;9.976;2022-07-23T13:35:37;0.97;;;0.90;;
14748;SDS011;7466;53.574;9.976;2022-07-23T13:38:04;0.97;;;0.80;;
14748;SDS011;7466;53.574;9.976;2022-07-23T13:40:33;1.73;;;0.90;;
14748;SDS011;7466;53.574;9.976;2022-07-23T13:43:04;1.37;;;1.07;;
14748;SDS011;7466;53.574;9.976;2022-07-23T13:45:32;0.90;;;0.87;;
14748;SDS011;7466;53.574;9.976;2022-07-23T13:47:59;3.83;;;1.00;;
14748;SDS011;7466;53.574;9.976;2022-07-23T13:50:26;1.07;;;0.70;;
14748;SDS011;7466;53.574;9.976;2022-07-23T13:52:53;1.27;;;0.90;;
14748;SDS011;7466;53.574;9.976;2022-07-23T13:55:21;1.13;;;1.00;;
14748;SDS011;7466;53.574;9.976;2022-07-23T13:57:47;1.20;;;0.90;;
14748;SDS011;7466;53.574;9.976;2022-07-23T14:00:16;1.90;;;1.03;;
14748;SDS011;7466;53.574;9.976;2022-07-23T14:02:43;1.77;;;0.90;;
14748;SDS011;7466;53.574;9.976;2022-07-23T14:05:10;1.33;;;0.93;;
14748;SDS011;7466;53.574;9.976;2022-07-23T14:07:37;2.63;;;1.00;;
14748;SDS011;7466;53.574;9.976;2022-07-23T14:10:05;2.30;;;1.00;;
14748;SDS011;7466;53.574;9.976;2022-07-23T14:12:33;1.20;;;1.10;;
14748;SDS011;7466;53.574;9.976;2022-07-23T14:15:00;0.80;;;0.70;;
14748;SDS011;7466;53.574;9.976;2022-07-23T14:17:28;2.90;;;1.10;;
14748;SDS011;7466;53.574;9.976;2022-07-23T14:19:56;2.97;;;1.07;;
14748;SDS011;7466;53.574;9.976;2022-07-23T14:22:23;2.40;;;0.90;;
14748;SDS011;7466;53.574;9.976;2022-07-23T14:24:50;1.70;;;0.87;;
14748;SDS011;7466;53.574;9.976;2022-07-23T14:27:17;1.77;;;1.17;;
14748;SDS011;7466;53.574;9.976;2022-07-23T14:29:44;0.93;;;0.90;;
14748;SDS011;7466;53.574;9.976;2022-07-23T14:32:11;1.67;;;0.90;;
14748;SDS011;7466;53.574;9.976;2022-07-23T14:34:39;1.00;;;0.90;;
14748;SDS011;7466;53.574;9.976;2022-07-23T14:37:06;2.55;;;1.00;;
14748;SDS011;7466;53.574;9.976;2022-07-23T14:39:32;0.90;;;0.70;;
14748;SDS011;7466;53.574;9.976;2022-07-23T14:41:59;1.33;;;0.80;;
14748;SDS011;7466;53.574;9.976;2022-07-23T14:44:26;1.98;;;1.13;;
14748;SDS011;7466;53.574;9.976;2022-07-23T14:46:53;1.58;;;0.80;;
14748;SDS011;7466;53.574;9.976;2022-07-23T14:49:20;1.45;;;1.10;;
14748;SDS011;7466;53.574;9.976;2022-07-23T14:51:48;1.67;;;0.80;;
14748;SDS011;7466;53.574;9.976;2022-07-23T14:54:15;0.90;;;0.90;;
14748;SDS011;7466;53.574;9.976;2022-07-23T14:56:42;1.10;;;0.73;;
14748;SDS011;7466;53.574;9.976;2022-07-23T14:59:09;1.60;;;0.80;;
14748;SDS011;7466;53.574;9.976;2022-07-23T15:01:36;1.07;;;0.80;;
14748;SDS011;7466;53.574;9.976;2022-07-23T15:04:03;1.10;;;0.90;;
14748;SDS011;7466;53.574;9.976;2022-07-23T15:06:31;1.33;;;1.00;;
14748;SDS011;7466;53.574;9.976;2022-07-23T15:08:59;2.77;;;0.80;;
14748;SDS011;7466;53.574;9.976;2022-07-23T15:11:26;1.03;;;0.93;;
14748;SDS011;7466;53.574;9.976;2022-07-23T15:13:54;2.00;;;0.80;;
14748;SDS011;7466;53.574;9.976;2022-07-23T15:16:21;0.83;;;0.80;;
14748;SDS011;7466;53.574;9.976;2022-07-23T15:18:47;2.63;;;0.97;;
14748;SDS011;7466;53.574;9.976;2022-07-23T15:21:14;1.83;;;0.80;;
14748;SDS011;7466;53.574;9.976;2022-07-23T15:23:41;1.20;;;0.90;;
14748;SDS011;7466;53.574;9.976;2022-07-23T15:26:09;1.97;;;1.00;;
14748;SDS011;7466;53.574;9.976;2022-07-23T15:28:36;1.47;;;0.93;;